Time;durP1;ratioP1;P1;durP2;ratioP2;P2;SDS_P1;SDS_P2;PMS_P1;PMS_P2;Temp;Humidity;BMP_temperature;BMP_pressure;BME280_temperature;BME280_humidity;BME280_pressure;Samples;Min_cycle;Max_cycle;Signal;HPM_P1;HPM_P2
2024/01/11 00:01:20;;;;;;;15.63;7.33;;;-2.20;1.00;;;;;;20663154;28;20065;-40
2024/01/11 00:11:20;;;;;;;17.10;7.73;;;-2.20;1.00;;;;;;20665015;28;20548;-38
2024/01/11 00:21:21;;;;;;;15.40;6.32;;;-2.30;1.00;;;;;;20672614;28;20461;-38
2024/01/11 00:31:22;;;;;;;17.08;7.68;;;-2.50;1.00;;;;;;20678297;28;20042;-37
2024/01/11 00:41:22;;;;;;;15.85;7.07;;;-2.50;1.00;;;;;;20670077;28;20521;-38
2024/01/11 00:51:23;;;;;;;16.70;7.93;;;-2.50;1.00;;;;;;20680022;28;20045;-38
2024/01/11 01:01:24;;;;;;;18.67;7.10;;;-2.60;1.00;;;;;;20692627;28;20066;-38
2024/01/11 01:11:24;;;;;;;19.17;8.02;;;-2.60;1.00;;;;;;20676567;28;20121;-38
2024/01/11 01:21:25;;;;;;;16.08;7.38;;;-2.60;1.00;;;;;;20690876;28;20434;-38
2024/01/11 01:31:26;;;;;;;22.63;8.50;;;-2.80;1.00;;;;;;20687476;28;20048;-38
2024/01/11 01:41:26;;;;;;;19.75;7.82;;;-2.90;1.00;;;;;;20678773;28;20043;-38
2024/01/11 01:51:29;;;;;;;20.85;7.93;;;-2.80;1.00;;;;;;20680729;28;20026;-38
2024/01/11 02:01:30;;;;;;;21.15;9.10;;;-2.90;1.00;;;;;;20676005;28;20083;-38
2024/01/11 02:11:31;;;;;;;21.83;8.07;;;-3.00;1.00;;;;;;20670051;28;20052;-38
2024/01/11 02:21:32;;;;;;;25.58;9.70;;;-3.00;1.00;;;;;;20692409;28;20064;-38
2024/01/11 02:31:33;;;;;;;21.15;8.88;;;-3.10;1.00;;;;;;20673078;28;20042;-37
2024/01/11 02:41:35;;;;;;;23.65;9.20;;;-3.10;1.00;;;;;;20672885;28;20038;-37
2024/01/11 02:51:36;;;;;;;23.45;9.63;;;-3.20;1.00;;;;;;20674205;28;20042;-37
2024/01/11 03:01:37;;;;;;;23.33;9.38;;;-3.30;1.00;;;;;;20664677;28;20096;-37
2024/01/11 03:11:37;;;;;;;20.48;8.95;;;-3.40;1.00;;;;;;20659756;28;20046;-37
2024/01/11 03:21:44;;;;;;;22.70;9.65;;;-3.50;1.00;;;;;;20668926;28;20038;-38
2024/01/11 03:31:44;;;;;;;24.85;11.68;;;-3.50;1.00;;;;;;20671454;28;20045;-36
2024/01/11 03:41:45;;;;;;;32.13;13.07;;;-3.60;1.00;;;;;;20664216;28;20038;-37
2024/01/11 03:51:46;;;;;;;30.65;12.77;;;-3.40;1.00;;;;;;20671034;28;20039;-37
2024/01/11 04:01:46;;;;;;;34.93;13.63;;;-3.40;1.00;;;;;;20676730;28;20046;-37
2024/01/11 04:11:47;;;;;;;34.22;13.85;;;-3.40;1.00;;;;;;20670117;28;20472;-37
2024/01/11 04:21:48;;;;;;;31.10;12.87;;;-3.40;1.00;;;;;;20669847;28;20074;-38
2024/01/11 04:31:48;;;;;;;34.22;14.10;;;-3.40;1.00;;;;;;20676869;28;20449;-38
2024/01/11 04:41:49;;;;;;;37.00;15.15;;;-3.30;1.00;;;;;;20676644;28;20121;-38
2024/01/11 04:51:50;;;;;;;37.90;15.23;;;-3.30;1.00;;;;;;20681434;28;20065;-38
2024/01/11 05:01:50;;;;;;;37.58;16.38;;;-3.30;1.00;;;;;;20674278;28;20037;-38
2024/01/11 05:11:51;;;;;;;35.92;15.38;;;-3.40;1.00;;;;;;20678395;28;20049;-38
2024/01/11 05:21:51;;;;;;;39.55;16.17;;;-3.50;1.00;;;;;;20680186;28;20178;-38
2024/01/11 05:31:52;;;;;;;37.78;15.35;;;-3.50;1.00;;;;;;20676386;28;20034;-38
2024/01/11 05:41:53;;;;;;;37.97;16.33;;;-3.50;1.00;;;;;;20675592;28;20132;-38
2024/01/11 05:51:53;;;;;;;39.03;16.48;;;-3.60;1.00;;;;;;20678318;28;20081;-38
2024/01/11 06:01:54;;;;;;;39.53;15.90;;;-3.70;1.00;;;;;;20677823;28;20050;-37
2024/01/11 06:11:55;;;;;;;41.67;17.05;;;-3.80;1.00;;;;;;20677653;28;20046;-37
2024/01/11 06:21:55;;;;;;;36.58;14.95;;;-3.90;1.00;;;;;;20669824;28;20845;-37
2024/01/11 06:31:56;;;;;;;37.28;16.77;;;-4.00;1.00;;;;;;20670162;28;20489;-38
2024/01/11 06:41:56;;;;;;;39.17;15.68;;;-4.00;1.00;;;;;;20676056;28;20209;-38
2024/01/11 06:51:57;;;;;;;41.20;17.38;;;-4.00;1.00;;;;;;20674428;28;20046;-37
2024/01/11 07:01:58;;;;;;;40.28;17.27;;;-3.80;1.00;;;;;;20666868;28;20050;-37
2024/01/11 07:11:58;;;;;;;40.88;18.33;;;-3.80;1.00;;;;;;20666517;28;20050;-37
2024/01/11 07:21:59;;;;;;;43.47;18.70;;;-3.80;1.00;;;;;;20717427;28;20050;-38
2024/01/11 07:32:00;;;;;;;43.83;17.98;;;-3.80;1.00;;;;;;20659479;28;20066;-38
2024/01/11 07:42:01;;;;;;;46.42;18.48;;;-3.70;1.00;;;;;;20669162;28;20582;-38
2024/01/11 07:52:02;;;;;;;47.67;20.05;;;-3.60;1.00;;;;;;20675292;28;20096;-38
2024/01/11 08:02:03;;;;;;;47.17;18.73;;;-3.70;1.00;;;;;;20674588;28;20050;-38
2024/01/11 08:12:04;;;;;;;44.38;18.73;;;-3.70;1.00;;;;;;20682791;28;20061;-38
2024/01/11 08:22:05;;;;;;;43.03;18.35;;;-3.80;1.00;;;;;;20673081;28;20048;-38
2024/01/11 08:32:06;;;;;;;43.65;19.05;;;-3.70;1.00;;;;;;20684670;28;20042;-37
2024/01/11 08:42:07;;;;;;;46.97;19.77;;;-3.60;1.00;;;;;;20680106;28;20038;-37
2024/01/11 08:52:08;;;;;;;46.13;18.38;;;-3.60;1.00;;;;;;20674431;28;20111;-47
2024/01/11 09:02:08;;;;;;;47.47;19.25;;;-3.50;1.00;;;;;;20647455;28;20045;-38
2024/01/11 09:12:09;;;;;;;48.80;19.95;;;-3.30;1.00;;;;;;20656992;28;20494;-37
2024/01/11 09:22:10;;;;;;;46.03;18.80;;;-3.00;1.00;;;;;;20678324;28;20045;-38
2024/01/11 09:32:12;;;;;;;40.65;18.38;;;-2.50;1.00;;;;;;20666225;28;20044;-38
2024/01/11 09:42:12;;;;;;;34.55;15.93;;;-2.00;1.00;;;;;;20662985;28;20457;-39
2024/01/11 09:52:16;;;;;;;40.50;17.00;;;-1.90;1.00;;;;;;20664497;28;20060;-38
2024/01/11 10:02:17;;;;;;;38.53;15.73;;;-1.70;1.00;;;;;;20665582;28;20089;-39
2024/01/11 10:12:20;;;;;;;42.50;15.98;;;-1.60;1.00;;;;;;20663396;28;20274;-38
2024/01/11 10:22:21;;;;;;;30.92;14.95;;;-1.50;1.00;;;;;;20662893;28;20486;-38
2024/01/11 10:32:21;;;;;;;32.92;13.15;;;-1.40;1.00;;;;;;20666525;28;20521;-38
2024/01/11 10:42:27;;;;;;;34.67;13.82;;;-1.30;1.00;;;;;;20667570;28;20040;-38
2024/01/11 10:52:34;;;;;;;30.03;14.20;;;-1.10;4.90;;;;;;20657500;28;20066;-38
2024/01/11 11:02:36;;;;;;;33.50;14.48;;;-0.80;10.50;;;;;;20664237;28;20045;-38
2024/01/11 11:12:38;;;;;;;36.92;15.57;;;-0.80;15.10;;;;;;20661001;28;20037;-38
2024/01/11 11:22:41;;;;;;;37.05;16.80;;;-0.60;21.70;;;;;;20680962;28;20072;-38
2024/01/11 11:32:45;;;;;;;31.13;13.65;;;-0.60;26.30;;;;;;20675871;28;20038;-39
2024/01/11 11:42:46;;;;;;;29.92;13.98;;;-0.50;31.60;;;;;;20668175;28;20042;-38
2024/01/11 11:52:56;;;;;;;30.55;14.32;;;-0.30;38.20;;;;;;20675739;28;20027;-39
2024/01/11 12:02:57;;;;;;;29.48;14.65;;;-0.10;48.90;;;;;;20637395;28;20425;-38
2024/01/11 12:13:00;;;;;;;29.70;14.63;;;0.10;45.00;;;;;;20659236;28;20092;-40
2024/01/11 12:23:02;;;;;;;31.83;14.40;;;0.30;51.20;;;;;;20655246;28;20132;-38
2024/01/11 12:33:04;;;;;;;27.20;13.48;;;0.80;33.10;;;;;;20657630;28;20049;-39
2024/01/11 12:43:06;;;;;;;29.08;13.82;;;0.70;32.20;;;;;;20660405;28;20037;-40
2024/01/11 12:53:18;;;;;;;27.55;13.63;;;0.80;38.50;;;;;;20671805;28;20033;-40
2024/01/11 13:03:20;;;;;;;30.45;13.98;;;0.90;30.60;;;;;;20672429;28;20053;-40
2024/01/11 13:13:21;;;;;;;26.20;13.20;;;1.10;30.60;;;;;;20671736;28;20030;-40
2024/01/11 13:23:21;;;;;;;26.02;12.15;;;1.30;22.80;;;;;;20671130;28;20038;-39
2024/01/11 13:33:23;;;;;;;28.00;12.43;;;1.40;26.70;;;;;;20669258;28;20536;-39
2024/01/11 13:43:24;;;;;;;25.67;12.38;;;1.40;27.10;;;;;;20668710;28;20530;-40
2024/01/11 13:53:24;;;;;;;23.15;11.90;;;1.70;22.80;;;;;;20662014;28;20058;-39
2024/01/11 14:03:25;;;;;;;26.70;11.80;;;1.80;19.40;;;;;;20659351;28;20517;-40
2024/01/11 14:13:26;;;;;;;24.00;11.30;;;1.90;14.80;;;;;;20663277;28;20107;-39
2024/01/11 14:23:26;;;;;;;26.08;12.30;;;1.80;13.70;;;;;;20683979;28;20507;-40
2024/01/11 14:33:28;;;;;;;21.20;11.17;;;1.80;14.90;;;;;;20676843;28;20034;-39
2024/01/11 14:43:28;;;;;;;24.17;10.82;;;2.00;13.60;;;;;;20668460;28;20905;-40
2024/01/11 14:53:29;;;;;;;26.90;12.57;;;2.00;8.90;;;;;;20658278;28;20046;-40
2024/01/11 15:03:31;;;;;;;25.70;12.75;;;1.80;15.30;;;;;;20653782;28;20474;-38
2024/01/11 15:13:33;;;;;;;27.33;13.98;;;1.80;19.30;;;;;;20657263;28;20034;-39
2024/01/11 15:23:34;;;;;;;30.92;15.57;;;1.70;24.80;;;;;;20660003;28;20058;-40
2024/01/11 15:33:38;;;;;;;30.00;15.73;;;1.70;28.60;;;;;;20662034;28;20043;-40
2024/01/11 15:43:39;;;;;;;33.30;16.15;;;1.70;38.90;;;;;;20636810;28;20057;-40
2024/01/11 15:53:41;;;;;;;31.52;15.05;;;1.80;48.70;;;;;;20654487;28;20042;-41
2024/01/11 16:03:42;;;;;;;34.42;15.63;;;1.70;55.00;;;;;;20635452;28;20050;-40
2024/01/11 16:13:45;;;;;;;28.23;14.70;;;1.70;62.30;;;;;;20654480;28;20462;-40
2024/01/11 16:23:46;;;;;;;30.67;15.55;;;1.70;68.40;;;;;;20667904;28;20046;-41
2024/01/11 16:33:47;;;;;;;34.40;16.77;;;1.70;77.00;;;;;;20678102;28;20038;-40
2024/01/11 16:43:47;;;;;;;33.10;15.52;;;1.60;83.10;;;;;;20682055;28;21219;-39
2024/01/11 16:53:48;;;;;;;33.08;15.77;;;1.60;89.20;;;;;;20668662;28;20050;-39
2024/01/11 17:03:48;;;;;;;31.05;16.02;;;1.60;94.90;;;;;;20669481;28;20125;-40
2024/01/11 17:13:49;;;;;;;32.22;16.83;;;1.60;98.70;;;;;;20682156;28;20046;-39
2024/01/11 17:23:49;;;;;;;33.63;16.60;;;1.80;99.90;;;;;;20675694;28;20438;-39
2024/01/11 17:33:50;;;;;;;31.42;17.13;;;1.80;99.90;;;;;;20663983;28;20291;-41
2024/01/11 17:43:52;;;;;;;34.65;17.02;;;1.80;96.80;;;;;;20672951;28;20100;-40
2024/01/11 17:53:53;;;;;;;29.65;15.35;;;1.90;99.60;;;;;;20662990;28;20201;-40
2024/01/11 18:03:54;;;;;;;33.17;16.60;;;1.70;99.90;;;;;;20670975;28;20197;-40
2024/01/11 18:13:54;;;;;;;30.83;15.50;;;1.80;99.90;;;;;;20662924;28;20498;-40
2024/01/11 18:23:55;;;;;;;29.40;14.98;;;1.80;99.90;;;;;;20660204;28;20049;-40
2024/01/11 18:33:56;;;;;;;29.67;14.63;;;1.80;99.90;;;;;;20677931;28;20053;-40
2024/01/11 18:43:56;;;;;;;27.08;13.20;;;1.80;99.90;;;;;;20669518;28;20046;-40
2024/01/11 18:53:57;;;;;;;30.98;16.33;;;1.80;99.90;;;;;;20673194;28;20583;-40
2024/01/11 19:03:58;;;;;;;36.83;18.02;;;1.90;99.90;;;;;;20676302;28;20037;-40
2024/01/11 19:13:58;;;;;;;37.50;17.87;;;1.90;99.90;;;;;;20678565;28;20343;-40
2024/01/11 19:24:01;;;;;;;42.58;20.90;;;1.90;99.90;;;;;;20669121;28;21023;-40
2024/01/11 19:34:01;;;;;;;33.00;15.18;;;2.00;99.90;;;;;;20673037;28;20037;-40
2024/01/11 19:44:02;;;;;;;42.17;16.23;;;2.10;99.90;;;;;;20676460;28;20038;-40
2024/01/11 19:54:03;;;;;;;24.30;7.60;;;2.20;99.90;;;;;;20675829;28;20445;-40
2024/01/11 20:04:03;;;;;;;16.77;5.28;;;2.60;99.90;;;;;;20654751;28;20104;-40
2024/01/11 20:14:07;;;;;;;22.50;4.05;;;2.90;99.90;;;;;;20674581;28;20057;-40
2024/01/11 20:24:07;;;;;;;18.45;4.75;;;3.10;99.90;;;;;;20668137;28;20046;-40
2024/01/11 20:34:12;;;;;;;24.40;5.55;;;3.20;99.90;;;;;;20668738;28;20269;-40
2024/01/11 20:44:15;;;;;;;25.33;4.22;;;3.30;99.90;;;;;;20666922;28;20065;-41
2024/01/11 20:54:16;;;;;;;17.27;3.95;;;3.30;99.90;;;;;;20668795;28;20061;-40
2024/01/11 21:04:16;;;;;;;27.90;4.75;;;3.40;99.90;;;;;;20660646;28;20069;-41
2024/01/11 21:14:17;;;;;;;15.15;3.30;;;3.40;99.90;;;;;;20655897;28;20103;-40
2024/01/11 21:24:19;;;;;;;11.63;3.00;;;3.40;99.90;;;;;;20660523;28;20061;-40
2024/01/11 21:34:20;;;;;;;13.00;3.45;;;3.40;99.90;;;;;;20662416;28;20120;-41
2024/01/11 21:44:21;;;;;;;14.50;3.30;;;3.40;99.90;;;;;;20662179;28;20041;-41
2024/01/11 21:54:22;;;;;;;15.45;3.50;;;3.30;99.90;;;;;;20672575;28;20411;-41
2024/01/11 22:04:23;;;;;;;10.20;2.60;;;3.40;99.90;;;;;;20674553;28;20178;-41
2024/01/11 22:14:24;;;;;;;11.23;2.50;;;3.30;99.90;;;;;;20675618;28;20260;-41
2024/01/11 22:24:24;;;;;;;18.02;3.70;;;3.30;99.90;;;;;;20644701;28;20196;-43
2024/01/11 22:34:25;;;;;;;14.30;3.45;;;3.40;99.90;;;;;;20665800;28;20042;-41
2024/01/11 22:44:25;;;;;;;8.85;2.50;;;3.50;99.90;;;;;;20648087;28;20505;-40
2024/01/11 22:54:26;;;;;;;10.88;2.78;;;3.40;99.90;;;;;;20673686;28;20069;-40
2024/01/11 23:04:27;;;;;;;12.07;3.10;;;3.40;99.90;;;;;;20670176;28;20100;-40
2024/01/11 23:14:28;;;;;;;7.93;2.80;;;3.40;99.90;;;;;;20661352;28;20046;-40
2024/01/11 23:24:28;;;;;;;4.90;2.28;;;3.40;99.90;;;;;;20658015;28;20044;-40
2024/01/11 23:34:29;;;;;;;5.25;2.40;;;3.30;99.90;;;;;;20660189;28;20055;-40
2024/01/11 23:44:29;;;;;;;5.47;2.10;;;3.30;99.90;;;;;;20638765;28;20116;-40
2024/01/11 23:54:30;;;;;;;8.40;2.13;;;3.20;99.90;;;;;;20659019;28;20419;-40
